Time;durP1;ratioP1;P1;durP2;ratioP2;P2;SDS_P1;SDS_P2;PMS_P1;PMS_P2;Temp;Humidity;BMP_temperature;BMP_pressure;BME280_temperature;BME280_humidity;BME280_pressure;Samples;Min_cycle;Max_cycle;Signal;HPM_P1;HPM_P2
2023/03/12 00:00:16;;;;;;;3.23;2.07;;;5.90;99.90;;;;;;4916597;29;20683;-70
2023/03/12 00:02:43;;;;;;;5.00;2.70;;;6.00;99.90;;;;;;4916507;29;20726;-70
2023/03/12 00:05:10;;;;;;;2.80;1.77;;;6.00;99.90;;;;;;4916530;29;20233;-70
2023/03/12 00:07:39;;;;;;;5.37;2.60;;;6.00;99.90;;;;;;4916639;29;20224;-70
2023/03/12 00:10:07;;;;;;;6.40;2.47;;;6.00;99.90;;;;;;4916470;29;20657;-70
2023/03/12 00:12:34;;;;;;;5.43;2.40;;;6.00;99.90;;;;;;4916375;29;20589;-70
2023/03/12 00:15:01;;;;;;;3.20;1.80;;;6.00;99.90;;;;;;4916671;29;20321;-70
2023/03/12 00:17:29;;;;;;;4.23;2.07;;;6.00;99.90;;;;;;4916412;29;20206;-70
2023/03/12 00:19:56;;;;;;;4.13;2.07;;;6.00;99.90;;;;;;4916384;29;20736;-71
2023/03/12 00:22:24;;;;;;;5.87;2.63;;;5.90;99.90;;;;;;4916327;29;20244;-70
2023/03/12 00:24:54;;;;;;;4.63;2.23;;;5.80;99.90;;;;;;4916766;29;20244;-70
2023/03/12 00:27:20;;;;;;;5.03;2.77;;;5.80;99.90;;;;;;4916351;29;20217;-70
2023/03/12 00:29:48;;;;;;;4.93;2.40;;;5.80;99.90;;;;;;4916611;29;20220;-70
2023/03/12 00:32:15;;;;;;;4.60;2.30;;;5.80;99.90;;;;;;4916314;29;20233;-70
2023/03/12 00:34:42;;;;;;;7.70;2.30;;;5.90;99.90;;;;;;4916437;29;20298;-70
2023/03/12 00:37:09;;;;;;;4.37;2.20;;;5.80;99.90;;;;;;4916274;29;20294;-70
2023/03/12 00:39:36;;;;;;;5.30;2.73;;;5.70;99.90;;;;;;4916523;29;20217;-70
2023/03/12 00:42:04;;;;;;;7.23;2.33;;;5.70;99.90;;;;;;4916306;29;20246;-70
2023/03/12 00:44:31;;;;;;;5.23;1.90;;;5.70;99.90;;;;;;4916058;29;20597;-70
2023/03/12 00:46:58;;;;;;;4.57;2.00;;;5.70;99.90;;;;;;4916501;29;20596;-70
2023/03/12 00:49:25;;;;;;;4.90;2.00;;;5.60;99.90;;;;;;4919717;29;20670;-70
2023/03/12 00:51:52;;;;;;;4.13;1.80;;;5.70;99.90;;;;;;4919544;29;20233;-70
2023/03/12 00:54:19;;;;;;;3.77;2.03;;;5.70;99.90;;;;;;4919693;29;20209;-70
2023/03/12 00:56:46;;;;;;;5.90;2.00;;;5.60;99.90;;;;;;4919823;29;20209;-69
2023/03/12 00:59:15;;;;;;;6.60;2.07;;;5.60;99.90;;;;;;4919705;29;20225;-69
2023/03/12 01:01:42;;;;;;;3.97;1.70;;;5.60;99.90;;;;;;4919734;29;20225;-70
2023/03/12 01:04:09;;;;;;;4.73;2.30;;;5.60;99.90;;;;;;4919485;29;20244;-70
2023/03/12 01:06:36;;;;;;;5.80;2.17;;;5.60;99.90;;;;;;4919421;29;20212;-70
2023/03/12 01:09:04;;;;;;;2.50;1.50;;;5.60;99.90;;;;;;4919479;29;20205;-70
2023/03/12 01:11:31;;;;;;;3.70;1.87;;;5.60;99.90;;;;;;4919475;29;20237;-70
2023/03/12 01:13:59;;;;;;;4.13;1.93;;;5.50;99.90;;;;;;4919508;29;20277;-70
2023/03/12 01:16:29;;;;;;;8.30;2.10;;;5.50;99.90;;;;;;4919234;29;20206;-70
2023/03/12 01:18:56;;;;;;;3.60;1.47;;;5.50;99.90;;;;;;4919556;29;20216;-71
2023/03/12 01:21:23;;;;;;;7.70;1.63;;;5.40;99.90;;;;;;4919220;29;20225;-69
2023/03/12 01:23:50;;;;;;;5.13;1.80;;;5.30;99.90;;;;;;4919378;29;20244;-69
2023/03/12 01:26:17;;;;;;;4.20;1.40;;;5.20;99.90;;;;;;4919256;29;20209;-70
2023/03/12 01:28:44;;;;;;;2.00;1.00;;;5.20;99.90;;;;;;4919144;29;20300;-70
2023/03/12 01:31:13;;;;;;;2.17;1.40;;;5.20;99.90;;;;;;4919048;29;20233;-69
2023/03/12 01:33:42;;;;;;;4.43;1.10;;;5.30;99.90;;;;;;4918988;29;20209;-70
2023/03/12 01:36:17;;;;;;;2.33;1.13;;;5.30;99.90;;;;;;4918979;29;20697;-70
2023/03/12 01:38:44;;;;;;;3.40;1.30;;;5.20;99.90;;;;;;4918579;29;20564;-71
2023/03/12 01:41:11;;;;;;;3.80;1.37;;;5.30;99.90;;;;;;4918819;29;20236;-70
2023/03/12 01:43:39;;;;;;;2.70;1.20;;;5.20;99.90;;;;;;4918853;29;20209;-70
2023/03/12 01:46:21;;;;;;;3.30;1.00;;;5.20;99.90;;;;;;4919145;29;20224;-70
2023/03/12 01:48:54;;;;;;;5.57;1.27;;;5.20;99.90;;;;;;4919015;29;20213;-70
2023/03/12 01:51:22;;;;;;;2.30;1.10;;;5.10;99.90;;;;;;4918498;29;20229;-69
2023/03/12 01:53:51;;;;;;;4.67;1.07;;;5.20;99.90;;;;;;4918843;29;20216;-70
2023/03/12 01:56:20;;;;;;;4.40;1.30;;;5.10;99.90;;;;;;4918781;29;20220;-70
2023/03/12 01:58:52;;;;;;;1.60;0.93;;;5.10;99.90;;;;;;4918801;29;20216;-70
2023/03/12 02:01:21;;;;;;;1.67;1.10;;;5.20;99.90;;;;;;4918211;29;20732;-70
2023/03/12 02:03:53;;;;;;;1.17;0.70;;;5.10;99.90;;;;;;4918618;29;20213;-71
2023/03/12 02:06:26;;;;;;;5.70;1.30;;;5.00;99.90;;;;;;4918255;29;20221;-70
2023/03/12 02:08:54;;;;;;;1.93;0.80;;;5.00;99.90;;;;;;4918760;29;20701;-70
2023/03/12 02:11:21;;;;;;;4.97;0.83;;;5.00;99.90;;;;;;4918605;29;20238;-70
2023/03/12 02:13:48;;;;;;;3.00;0.90;;;4.90;99.90;;;;;;4918327;29;20218;-70
2023/03/12 02:16:15;;;;;;;1.33;0.93;;;4.90;99.90;;;;;;4918363;29;20215;-70
2023/03/12 02:18:41;;;;;;;3.83;0.90;;;4.90;99.90;;;;;;4918192;29;20214;-70
2023/03/12 02:21:15;;;;;;;4.53;0.90;;;4.80;99.90;;;;;;4917972;29;20229;-70
2023/03/12 02:23:49;;;;;;;1.27;0.90;;;4.90;99.90;;;;;;4918232;29;20213;-70
2023/03/12 02:26:19;;;;;;;1.20;1.00;;;4.90;99.90;;;;;;4918014;29;20216;-74
2023/03/12 02:28:46;;;;;;;1.77;0.93;;;4.90;99.90;;;;;;4918046;29;20206;-71
2023/03/12 02:31:17;;;;;;;6.83;1.20;;;4.80;99.90;;;;;;4918131;29;20240;-74
2023/03/12 02:33:44;;;;;;;5.27;1.27;;;4.80;99.90;;;;;;4918004;29;20223;-70
2023/03/12 02:36:11;;;;;;;1.93;0.83;;;4.80;99.90;;;;;;4918079;29;20213;-70
2023/03/12 02:38:43;;;;;;;4.90;1.03;;;4.80;99.90;;;;;;4918163;29;20573;-70
2023/03/12 02:41:14;;;;;;;3.60;0.77;;;4.80;99.90;;;;;;4917770;29;20229;-70
2023/03/12 02:43:44;;;;;;;1.43;0.87;;;4.70;99.90;;;;;;4917515;29;20206;-70
2023/03/12 02:46:12;;;;;;;4.23;0.83;;;4.80;99.90;;;;;;4917695;29;20241;-70
2023/03/12 02:48:39;;;;;;;5.60;1.10;;;4.80;99.90;;;;;;4917973;29;20216;-70
2023/03/12 02:51:06;;;;;;;2.40;0.97;;;5.00;99.90;;;;;;4917630;29;20592;-73
2023/03/12 02:53:32;;;;;;;2.30;0.60;;;5.00;99.90;;;;;;4917824;29;20212;-69
2023/03/12 02:55:59;;;;;;;3.37;1.23;;;5.00;99.90;;;;;;4917840;29;20241;-70
2023/03/12 02:58:26;;;;;;;2.50;1.00;;;5.00;99.90;;;;;;4917525;29;20217;-70
2023/03/12 03:00:54;;;;;;;2.53;0.80;;;5.00;99.90;;;;;;4917526;29;20221;-70
2023/03/12 03:03:21;;;;;;;3.23;1.10;;;4.80;99.90;;;;;;4917632;29;20209;-69
2023/03/12 03:05:48;;;;;;;5.03;1.00;;;4.80;99.90;;;;;;4917186;29;20234;-70
2023/03/12 03:08:15;;;;;;;2.67;0.73;;;4.70;99.90;;;;;;4917476;29;20657;-70
2023/03/12 03:10:41;;;;;;;6.93;1.23;;;4.70;99.90;;;;;;4916956;29;20220;-70
2023/03/12 03:13:09;;;;;;;1.90;0.93;;;4.80;99.90;;;;;;4916826;29;20713;-70
2023/03/12 03:15:37;;;;;;;4.37;0.87;;;4.80;99.90;;;;;;4917456;29;20210;-71
2023/03/12 03:18:06;;;;;;;3.10;1.00;;;4.80;99.90;;;;;;4917458;29;20205;-70
2023/03/12 03:20:32;;;;;;;1.93;0.90;;;4.90;99.90;;;;;;4917221;29;20640;-70
2023/03/12 03:22:59;;;;;;;2.20;0.90;;;4.90;99.90;;;;;;4916953;29;20233;-70
2023/03/12 03:25:26;;;;;;;5.07;0.87;;;4.90;99.90;;;;;;4916989;29;20241;-70
2023/03/12 03:27:53;;;;;;;1.00;0.80;;;5.10;99.90;;;;;;4917022;29;20205;-70
2023/03/12 03:30:20;;;;;;;8.20;1.40;;;5.10;99.90;;;;;;4917012;29;20295;-70
2023/03/12 03:32:48;;;;;;;1.57;0.80;;;5.10;99.90;;;;;;4916954;29;20229;-70
2023/03/12 03:35:16;;;;;;;1.20;0.77;;;5.20;99.90;;;;;;4916800;29;20220;-70
2023/03/12 03:37:43;;;;;;;1.57;0.90;;;5.20;99.90;;;;;;4916920;29;20213;-69
2023/03/12 03:40:11;;;;;;;2.60;1.10;;;5.30;99.90;;;;;;4916612;29;20210;-69
2023/03/12 03:42:39;;;;;;;2.03;0.60;;;5.30;99.90;;;;;;4916972;29;20230;-70
2023/03/12 03:45:08;;;;;;;2.50;0.70;;;5.40;99.90;;;;;;4917019;29;20249;-70
2023/03/12 03:47:35;;;;;;;1.17;0.60;;;5.30;99.90;;;;;;4916921;29;20205;-70
2023/03/12 03:50:02;;;;;;;3.47;1.20;;;5.30;99.90;;;;;;4916875;29;20220;-70
2023/03/12 03:52:31;;;;;;;3.93;0.73;;;5.20;99.90;;;;;;4916569;29;20231;-70
2023/03/12 03:54:58;;;;;;;1.40;0.90;;;5.30;99.90;;;;;;4916570;29;20231;-70
2023/03/12 03:57:25;;;;;;;2.17;1.10;;;5.20;99.90;;;;;;4916835;29;20210;-69
2023/03/12 03:59:52;;;;;;;4.70;1.17;;;5.20;99.90;;;;;;4916877;29;20214;-70
2023/03/12 04:02:19;;;;;;;5.67;0.97;;;5.40;99.90;;;;;;4917317;29;20237;-69
2023/03/12 04:04:45;;;;;;;2.33;1.00;;;5.40;99.90;;;;;;4916406;29;20237;-70
2023/03/12 04:07:12;;;;;;;3.37;1.40;;;5.40;99.90;;;;;;4916470;29;20220;-70
2023/03/12 04:09:40;;;;;;;2.00;1.10;;;5.40;99.90;;;;;;4916398;29;20209;-71
2023/03/12 04:12:07;;;;;;;2.80;1.00;;;5.40;99.90;;;;;;4916505;29;20713;-70
2023/03/12 04:14:34;;;;;;;10.27;1.50;;;5.50;99.90;;;;;;4916675;29;20220;-70
2023/03/12 04:17:01;;;;;;;1.30;0.83;;;5.60;99.90;;;;;;4916628;29;20220;-69
2023/03/12 04:19:28;;;;;;;1.10;0.97;;;5.60;99.90;;;;;;4916491;29;20661;-70
2023/03/12 04:21:55;;;;;;;2.10;0.93;;;5.40;99.90;;;;;;4916258;29;20234;-69
2023/03/12 04:24:21;;;;;;;2.93;1.20;;;5.40;99.90;;;;;;4920259;29;20219;-70
2023/03/12 04:26:50;;;;;;;3.80;1.20;;;5.50;99.90;;;;;;4920429;29;20245;-69
2023/03/12 04:29:17;;;;;;;4.53;1.10;;;5.40;99.90;;;;;;4919974;29;20657;-69
2023/03/12 04:31:45;;;;;;;1.93;1.27;;;5.50;99.90;;;;;;4919910;29;20229;-70
2023/03/12 04:34:12;;;;;;;4.20;1.03;;;5.50;99.90;;;;;;4920024;29;20600;-69
2023/03/12 04:36:39;;;;;;;3.13;1.20;;;5.60;99.90;;;;;;4919911;29;20700;-69
2023/03/12 04:39:06;;;;;;;3.20;1.13;;;5.50;99.90;;;;;;4920220;29;20232;-69
2023/03/12 04:41:34;;;;;;;3.00;1.20;;;5.60;99.90;;;;;;4920122;29;20234;-69
2023/03/12 04:44:02;;;;;;;3.70;1.20;;;5.60;99.90;;;;;;4919942;29;20711;-71
2023/03/12 04:46:29;;;;;;;2.80;0.90;;;5.70;99.90;;;;;;4919868;29;20240;-69
2023/03/12 04:48:57;;;;;;;1.13;1.00;;;5.70;99.90;;;;;;4919824;29;20216;-69
2023/03/12 04:51:24;;;;;;;1.97;1.17;;;5.60;99.90;;;;;;4919714;29;20324;-69
2023/03/12 04:53:51;;;;;;;3.20;1.43;;;5.60;99.90;;;;;;4919841;29;20217;-70
2023/03/12 04:56:18;;;;;;;3.47;1.37;;;5.60;99.90;;;;;;4919774;29;20210;-70
2023/03/12 04:58:46;;;;;;;5.47;1.67;;;5.60;99.90;;;;;;4919567;29;20660;-69
2023/03/12 05:01:23;;;;;;;1.40;0.90;;;5.50;99.90;;;;;;4919646;29;20248;-70
2023/03/12 05:03:49;;;;;;;2.50;1.40;;;5.50;99.90;;;;;;4919511;29;20692;-70
2023/03/12 05:06:16;;;;;;;3.83;1.50;;;5.40;99.90;;;;;;4919540;29;20244;-70
2023/03/12 05:08:44;;;;;;;6.00;1.70;;;5.50;99.90;;;;;;4919575;29;20210;-70
2023/03/12 05:11:10;;;;;;;3.67;1.70;;;5.60;99.90;;;;;;4919345;29;20230;-70
2023/03/12 05:13:37;;;;;;;2.10;1.10;;;5.60;99.90;;;;;;4919371;29;20214;-71
2023/03/12 05:16:05;;;;;;;3.40;1.23;;;5.50;99.90;;;;;;4919202;29;20221;-70
2023/03/12 05:18:33;;;;;;;3.07;1.70;;;5.50;99.90;;;;;;4919603;29;20542;-71
2023/03/12 05:21:01;;;;;;;3.93;1.80;;;5.40;99.90;;;;;;4919298;29;20224;-71
2023/03/12 05:23:28;;;;;;;3.57;1.60;;;5.50;99.90;;;;;;4918719;29;20538;-70
2023/03/12 05:25:55;;;;;;;4.20;1.40;;;5.50;99.90;;;;;;4919007;29;20749;-70
2023/03/12 05:28:26;;;;;;;2.83;1.43;;;5.60;99.90;;;;;;4919095;29;20217;-73
2023/03/12 05:30:53;;;;;;;2.50;1.40;;;5.50;99.90;;;;;;4919241;29;20236;-72
2023/03/12 05:33:20;;;;;;;4.00;1.37;;;5.50;99.90;;;;;;4918908;29;20585;-72
2023/03/12 05:35:48;;;;;;;2.77;1.70;;;5.50;99.90;;;;;;4918013;29;20206;-70
2023/03/12 05:38:15;;;;;;;4.17;1.80;;;5.50;99.90;;;;;;4918831;29;20221;-71
2023/03/12 05:40:42;;;;;;;3.07;1.90;;;5.60;99.90;;;;;;4918899;29;20213;-71
2023/03/12 05:43:09;;;;;;;2.87;1.50;;;5.60;99.90;;;;;;4919066;29;20605;-72
2023/03/12 05:45:35;;;;;;;5.97;1.90;;;5.60;99.90;;;;;;4919031;29;20237;-70
2023/03/12 05:48:02;;;;;;;6.47;1.77;;;5.70;99.90;;;;;;4918757;29;20205;-71
2023/03/12 05:50:29;;;;;;;4.50;2.07;;;5.70;99.90;;;;;;4918836;29;20216;-70
2023/03/12 05:52:57;;;;;;;3.10;1.80;;;5.80;99.90;;;;;;4918793;29;20236;-70
2023/03/12 05:55:24;;;;;;;5.60;1.60;;;5.80;99.90;;;;;;4918649;29;20231;-70
2023/03/12 05:57:51;;;;;;;3.43;1.97;;;5.90;99.90;;;;;;4919452;29;20205;-70
2023/03/12 06:00:19;;;;;;;4.17;2.10;;;5.90;99.90;;;;;;4918999;29;20216;-70
2023/03/12 06:02:46;;;;;;;4.10;2.17;;;6.00;99.90;;;;;;4918652;29;20233;-70
2023/03/12 06:05:13;;;;;;;4.87;2.20;;;6.00;99.90;;;;;;4918142;29;20582;-70
2023/03/12 06:07:40;;;;;;;3.43;2.37;;;6.00;99.90;;;;;;4917963;29;20210;-70
2023/03/12 06:10:10;;;;;;;4.60;2.77;;;6.00;99.90;;;;;;4918065;29;20220;-70
2023/03/12 06:12:36;;;;;;;4.63;3.00;;;6.00;99.90;;;;;;4918499;29;20229;-70
2023/03/12 06:15:04;;;;;;;6.20;2.50;;;6.10;99.90;;;;;;4918559;29;20570;-70
2023/03/12 06:17:31;;;;;;;5.77;2.90;;;6.10;99.90;;;;;;4918314;29;20318;-70
2023/03/12 06:19:58;;;;;;;5.33;2.50;;;6.20;99.90;;;;;;4918271;29;20206;-70
2023/03/12 06:22:25;;;;;;;7.77;2.73;;;6.30;99.90;;;;;;4917823;29;20233;-70
2023/03/12 06:24:52;;;;;;;7.00;2.83;;;6.30;99.90;;;;;;4917819;29;20622;-70
2023/03/12 06:27:21;;;;;;;4.13;2.73;;;6.40;99.90;;;;;;4918066;29;20241;-70
2023/03/12 06:29:48;;;;;;;4.13;2.43;;;6.40;99.90;;;;;;4918176;29;20215;-70
2023/03/12 06:32:15;;;;;;;4.47;2.53;;;6.40;99.90;;;;;;4917770;29;20232;-71
2023/03/12 06:34:42;;;;;;;4.20;2.53;;;6.50;99.90;;;;;;4917858;29;20240;-72
2023/03/12 06:37:09;;;;;;;5.97;2.80;;;6.50;99.90;;;;;;4917734;29;20217;-70
2023/03/12 06:39:36;;;;;;;3.77;2.57;;;6.60;99.90;;;;;;4917925;29;20649;-70
2023/03/12 06:42:03;;;;;;;7.47;3.20;;;6.70;99.90;;;;;;4917830;29;20285;-70
2023/03/12 06:44:31;;;;;;;7.17;3.00;;;6.70;99.90;;;;;;4917692;29;20206;-70
2023/03/12 06:46:58;;;;;;;4.13;2.53;;;6.80;99.90;;;;;;4917681;29;20230;-70
2023/03/12 06:49:26;;;;;;;5.20;2.70;;;6.90;99.90;;;;;;4917816;29;20210;-70
2023/03/12 06:51:54;;;;;;;5.70;2.97;;;7.00;99.90;;;;;;4917401;29;20233;-69
2023/03/12 06:54:21;;;;;;;6.77;3.07;;;7.10;99.90;;;;;;4917657;29;20205;-70
2023/03/12 06:56:48;;;;;;;3.77;2.40;;;7.20;99.90;;;;;;4917518;29;20212;-71
2023/03/12 06:59:15;;;;;;;5.13;2.63;;;7.30;99.90;;;;;;4917209;29;20220;-72
2023/03/12 07:01:43;;;;;;;4.93;2.70;;;7.30;99.90;;;;;;4917408;29;20325;-70
2023/03/12 07:04:10;;;;;;;4.73;2.90;;;7.40;99.90;;;;;;4917210;29;20221;-70
2023/03/12 07:06:36;;;;;;;5.80;2.60;;;7.40;99.90;;;;;;4917074;29;20237;-70
2023/03/12 07:09:03;;;;;;;6.63;3.03;;;7.40;99.90;;;;;;4917139;29;20212;-70
2023/03/12 07:11:30;;;;;;;5.67;2.90;;;7.60;99.90;;;;;;4917136;29;20721;-70
2023/03/12 07:13:57;;;;;;;5.07;2.80;;;7.60;99.90;;;;;;4917304;29;20209;-70
2023/03/12 07:16:24;;;;;;;8.07;2.97;;;7.70;99.90;;;;;;4917226;29;20210;-71
2023/03/12 07:18:52;;;;;;;5.43;3.17;;;7.70;99.90;;;;;;4917207;29;20690;-70
2023/03/12 07:21:21;;;;;;;5.90;3.20;;;7.70;99.90;;;;;;4916809;29;20233;-70
2023/03/12 07:23:48;;;;;;;7.43;3.20;;;7.70;99.90;;;;;;4917182;29;20209;-70
2023/03/12 07:26:15;;;;;;;6.90;3.20;;;7.90;99.90;;;;;;4916859;29;20248;-70
2023/03/12 07:28:42;;;;;;;8.43;3.07;;;7.90;99.90;;;;;;4916805;29;20209;-70
2023/03/12 07:31:09;;;;;;;5.17;2.90;;;7.90;99.90;;;;;;4916803;29;20225;-70
2023/03/12 07:33:36;;;;;;;5.03;3.13;;;8.00;99.90;;;;;;4916984;29;20205;-70
2023/03/12 07:36:05;;;;;;;7.40;3.97;;;8.10;99.90;;;;;;4917050;29;20224;-71
2023/03/12 07:38:31;;;;;;;7.27;3.63;;;8.10;99.90;;;;;;4916860;29;20221;-70
2023/03/12 07:40:59;;;;;;;10.07;3.70;;;8.10;99.90;;;;;;4916792;29;20296;-70
2023/03/12 07:43:26;;;;;;;7.73;3.33;;;8.20;99.90;;;;;;4916763;29;20724;-70
2023/03/12 07:45:54;;;;;;;9.93;3.77;;;8.30;99.90;;;;;;4916504;29;20735;-72
2023/03/12 07:48:21;;;;;;;8.23;3.40;;;8.40;99.90;;;;;;4916599;29;20394;-70
2023/03/12 07:50:48;;;;;;;8.70;3.07;;;8.50;99.90;;;;;;4916998;29;20221;-73
2023/03/12 07:53:16;;;;;;;8.80;3.70;;;8.50;99.90;;;;;;4916256;29;20687;-70
2023/03/12 07:55:45;;;;;;;13.43;3.63;;;8.60;99.90;;;;;;4916566;29;20225;-70
2023/03/12 07:58:12;;;;;;;13.37;3.83;;;8.50;99.90;;;;;;4916058;29;20214;-73
2023/03/12 08:00:39;;;;;;;12.87;3.53;;;8.50;99.90;;;;;;4916128;29;20281;-70
2023/03/12 08:03:06;;;;;;;13.03;3.57;;;8.60;99.90;;;;;;4916445;29;20237;-70
2023/03/12 08:05:33;;;;;;;13.87;4.03;;;8.60;99.90;;;;;;4916013;29;20221;-70
2023/03/12 08:08:00;;;;;;;11.07;4.23;;;8.60;99.90;;;;;;4916231;29;20220;-70
2023/03/12 08:10:28;;;;;;;11.70;3.57;;;8.60;99.90;;;;;;4916262;29;20209;-70
2023/03/12 08:12:55;;;;;;;12.57;4.27;;;8.70;99.90;;;;;;4916109;29;20225;-70
2023/03/12 08:15:22;;;;;;;24.50;5.00;;;8.80;99.90;;;;;;4916179;29;20217;-70
2023/03/12 08:17:48;;;;;;;17.40;4.87;;;8.80;99.90;;;;;;4915989;29;20669;-70
2023/03/12 08:20:16;;;;;;;20.03;5.10;;;8.80;99.90;;;;;;4916025;29;20209;-70
2023/03/12 08:22:43;;;;;;;17.53;5.17;;;8.90;99.90;;;;;;4915992;29;20265;-70
2023/03/12 08:25:10;;;;;;;19.10;4.33;;;8.80;99.90;;;;;;4916044;29;20213;-70
2023/03/12 08:27:38;;;;;;;18.70;4.13;;;8.90;99.90;;;;;;4915825;29;20241;-70
2023/03/12 08:30:06;;;;;;;23.00;6.37;;;8.90;99.90;;;;;;4915244;29;20212;-70
2023/03/12 08:32:34;;;;;;;21.73;4.70;;;9.00;99.90;;;;;;4915711;29;20225;-70
2023/03/12 08:35:00;;;;;;;18.17;4.33;;;9.00;99.90;;;;;;4916354;29;20217;-70
2023/03/12 08:37:27;;;;;;;21.90;5.37;;;9.10;99.90;;;;;;4916263;29;20213;-70
2023/03/12 08:39:54;;;;;;;26.63;4.63;;;9.10;99.90;;;;;;4916447;29;20210;-71
2023/03/12 08:42:21;;;;;;;14.80;4.37;;;9.30;99.90;;;;;;4915933;29;20240;-70
2023/03/12 08:44:49;;;;;;;26.33;5.70;;;9.30;99.90;;;;;;4915942;29;20213;-70
2023/03/12 08:47:16;;;;;;;23.00;4.37;;;9.40;99.90;;;;;;4916283;29;20243;-70
2023/03/12 08:49:43;;;;;;;25.27;5.37;;;9.50;99.90;;;;;;4916103;29;20221;-70
2023/03/12 08:52:10;;;;;;;20.60;4.47;;;9.70;99.90;;;;;;4915924;29;20241;-70
2023/03/12 08:54:37;;;;;;;16.80;4.23;;;10.00;99.90;;;;;;4915870;29;20213;-69
2023/03/12 08:57:03;;;;;;;22.23;4.37;;;10.00;99.90;;;;;;4915895;29;20213;-70
2023/03/12 08:59:30;;;;;;;21.20;4.87;;;10.20;99.90;;;;;;4916097;29;20210;-70
2023/03/12 09:01:58;;;;;;;19.67;4.13;;;10.30;99.90;;;;;;4916108;29;20230;-70
2023/03/12 09:04:25;;;;;;;18.03;3.87;;;10.40;99.90;;;;;;4915858;29;20695;-70
2023/03/12 09:06:52;;;;;;;23.33;3.83;;;10.60;99.90;;;;;;4915799;29;20237;-70
2023/03/12 09:09:19;;;;;;;16.93;3.03;;;10.90;99.90;;;;;;4916398;29;20660;-69
2023/03/12 09:11:45;;;;;;;16.73;3.57;;;11.00;99.90;;;;;;4919314;29;20232;-69
2023/03/12 09:14:12;;;;;;;19.00;3.37;;;11.10;99.90;;;;;;4919166;29;20209;-69
2023/03/12 09:16:39;;;;;;;15.43;3.23;;;11.30;99.90;;;;;;4919091;29;20561;-70
2023/03/12 09:19:07;;;;;;;18.20;3.77;;;11.60;99.90;;;;;;4919214;29;20213;-70
2023/03/12 09:21:34;;;;;;;19.63;3.03;;;11.90;99.90;;;;;;4918971;29;20226;-70
2023/03/12 09:24:01;;;;;;;15.07;3.03;;;11.90;99.90;;;;;;4919267;29;20206;-69
2023/03/12 09:26:28;;;;;;;21.43;3.30;;;11.90;99.90;;;;;;4918805;29;20234;-70
2023/03/12 09:28:56;;;;;;;12.07;2.57;;;11.90;99.90;;;;;;4919188;29;20209;-70
2023/03/12 09:31:23;;;;;;;18.80;2.70;;;11.90;99.90;;;;;;4918972;29;20273;-70
2023/03/12 09:33:51;;;;;;;11.03;2.37;;;12.00;99.90;;;;;;4918058;29;20206;-70
2023/03/12 09:36:19;;;;;;;18.27;2.90;;;11.80;99.90;;;;;;4918206;29;20568;-71
2023/03/12 09:38:46;;;;;;;12.97;2.50;;;12.00;99.90;;;;;;4918510;29;20298;-70
2023/03/12 09:41:19;;;;;;;17.73;3.13;;;12.10;99.90;;;;;;4918436;29;20240;-70
2023/03/12 09:43:52;;;;;;;13.13;2.17;;;12.10;99.90;;;;;;4918422;29;20209;-70
2023/03/12 09:46:25;;;;;;;16.33;2.87;;;12.20;99.90;;;;;;4918228;29;20209;-70
2023/03/12 09:48:56;;;;;;;13.50;2.20;;;12.30;99.90;;;;;;4918395;29;20610;-70
2023/03/12 09:51:31;;;;;;;21.27;2.67;;;12.40;99.90;;;;;;4926837;29;20225;-70
2023/03/12 09:54:00;;;;;;;16.20;2.73;;;12.20;99.90;;;;;;4936816;29;20216;-70
2023/03/12 09:56:27;;;;;;;20.23;3.07;;;12.30;99.90;;;;;;4944217;29;20525;-70
2023/03/12 09:58:55;;;;;;;18.43;2.90;;;12.60;99.90;;;;;;4956635;29;20236;-70
2023/03/12 10:01:35;;;;;;;14.57;2.63;;;12.70;99.90;;;;;;4941442;29;20233;-70
2023/03/12 10:04:14;;;;;;;18.67;2.50;;;12.70;99.90;;;;;;4936918;29;20220;-71
2023/03/12 10:06:50;;;;;;;16.13;2.40;;;12.90;99.90;;;;;;4937003;29;20243;-70
2023/03/12 10:09:29;;;;;;;15.73;1.73;;;13.00;99.90;;;;;;4949003;29;20214;-71
2023/03/12 10:12:09;;;;;;;18.33;2.33;;;13.00;99.90;;;;;;4917999;29;20735;-70
2023/03/12 10:14:51;;;;;;;15.13;2.17;;;12.80;99.90;;;;;;4918314;29;20291;-71
2023/03/12 10:17:31;;;;;;;20.63;2.10;;;12.90;99.90;;;;;;4917973;29;20216;-70
2023/03/12 10:20:20;;;;;;;13.63;1.80;;;13.00;99.90;;;;;;4921610;29;20204;-70
2023/03/12 10:22:56;;;;;;;9.33;1.97;;;12.60;99.90;;;;;;4921837;29;20628;-71
2023/03/12 10:25:28;;;;;;;15.23;2.80;;;12.60;99.90;;;;;;4936581;29;20219;-69
2023/03/12 10:28:00;;;;;;;16.77;2.37;;;12.50;99.90;;;;;;4936892;29;20268;-70
2023/03/12 10:30:30;;;;;;;11.87;1.90;;;12.50;99.90;;;;;;4940511;29;20208;-70
2023/03/12 10:33:01;;;;;;;15.30;2.43;;;12.60;99.90;;;;;;4947849;28;20227;-71
2023/03/12 10:35:30;;;;;;;16.23;2.83;;;12.80;99.90;;;;;;4955751;29;20299;-71
2023/03/12 10:37:59;;;;;;;14.93;1.77;;;13.00;99.90;;;;;;4937122;29;20216;-70
2023/03/12 10:40:29;;;;;;;18.80;2.00;;;13.10;99.90;;;;;;4935134;29;20221;-74
2023/03/12 10:42:56;;;;;;;13.67;2.17;;;13.00;99.90;;;;;;4934793;29;20229;-70
2023/03/12 10:45:31;;;;;;;17.83;1.90;;;13.30;99.90;;;;;;4936990;29;20213;-71
2023/03/12 10:48:01;;;;;;;24.33;2.80;;;13.40;99.90;;;;;;4931532;29;20233;-71
2023/03/12 10:50:30;;;;;;;12.83;1.73;;;13.60;99.90;;;;;;4936476;29;20214;-73
2023/03/12 10:56:04;;;;;;;11.43;2.23;;;13.70;99.90;;;;;;5150431;27;20551;-71
2023/03/12 10:58:34;;;;;;;15.27;2.17;;;13.30;99.90;;;;;;5149951;27;20200;-70
2023/03/12 11:01:03;;;;;;;12.17;2.27;;;13.10;99.90;;;;;;5136217;27;20201;-72
2023/03/12 11:03:30;;;;;;;10.83;1.93;;;13.30;99.90;;;;;;5130025;27;20558;-72
2023/03/12 11:05:59;;;;;;;12.33;2.37;;;13.60;99.90;;;;;;5128754;27;20235;-69
2023/03/12 11:08:29;;;;;;;14.83;2.40;;;13.70;99.90;;;;;;5143899;27;20196;-73
2023/03/12 11:10:57;;;;;;;16.07;1.93;;;13.90;99.90;;;;;;5136656;27;20201;-70
2023/03/12 11:13:28;;;;;;;10.57;2.13;;;14.10;99.90;;;;;;5128565;27;20197;-71
2023/03/12 11:15:57;;;;;;;17.73;2.10;;;14.10;99.90;;;;;;5127767;27;20707;-71
2023/03/12 11:18:31;;;;;;;13.30;2.57;;;14.00;99.90;;;;;;5144118;27;20218;-68
2023/03/12 11:21:14;;;;;;;17.57;2.50;;;13.80;99.90;;;;;;5136573;27;20201;-71
2023/03/12 11:23:43;;;;;;;12.70;2.13;;;13.70;99.90;;;;;;5129652;27;20215;-71
2023/03/12 11:26:15;;;;;;;16.63;2.40;;;13.50;99.90;;;;;;5129292;27;20212;-71
2023/03/12 11:28:48;;;;;;;9.93;2.13;;;13.60;99.90;;;;;;5146461;27;20204;-71
2023/03/12 11:31:22;;;;;;;20.83;2.27;;;13.50;99.90;;;;;;5133666;27;20221;-71
2023/03/12 11:33:50;;;;;;;9.87;2.10;;;13.30;99.90;;;;;;5128851;27;20200;-68
2023/03/12 11:36:29;;;;;;;14.17;2.27;;;13.20;99.90;;;;;;5146890;27;20211;-70
2023/03/12 11:39:02;;;;;;;16.87;2.63;;;13.30;99.90;;;;;;5149448;27;20196;-71
2023/03/12 11:41:40;;;;;;;19.10;2.40;;;13.20;99.90;;;;;;5131120;27;20621;-70
2023/03/12 11:44:30;;;;;;;10.43;1.87;;;13.10;99.90;;;;;;5138865;27;20303;-69
2023/03/12 11:47:11;;;;;;;17.67;3.10;;;13.20;99.90;;;;;;5145798;27;20210;-69
2023/03/12 11:49:54;;;;;;;15.10;2.80;;;13.40;99.90;;;;;;5149311;27;20208;-71
2023/03/12 11:52:31;;;;;;;21.27;2.53;;;13.50;99.90;;;;;;5149648;27;20318;-69
2023/03/12 11:55:17;;;;;;;16.13;2.80;;;13.90;99.90;;;;;;5149535;27;20228;-71
2023/03/12 11:57:55;;;;;;;8.97;1.63;;;13.80;99.90;;;;;;5149126;27;20728;-70
2023/03/12 12:00:31;;;;;;;16.87;2.90;;;13.80;99.90;;;;;;5148954;27;20204;-69
2023/03/12 12:03:33;;;;;;;11.03;2.00;;;13.70;99.90;;;;;;5149308;27;20220;-70
2023/03/12 12:06:05;;;;;;;11.30;2.10;;;13.60;99.90;;;;;;5134774;27;20711;-70
2023/03/12 12:08:57;;;;;;;14.20;2.30;;;13.60;99.90;;;;;;5135647;27;20205;-71
2023/03/12 12:11:33;;;;;;;10.17;1.77;;;13.60;99.90;;;;;;5133947;27;20217;-70
2023/03/12 12:14:13;;;;;;;13.20;2.40;;;13.50;99.90;;;;;;5136714;27;20205;-71
2023/03/12 12:17:04;;;;;;;9.87;2.43;;;13.50;99.90;;;;;;5136546;27;20291;-69
2023/03/12 12:19:50;;;;;;;13.00;1.70;;;13.40;99.90;;;;;;5136259;27;20203;-70
2023/03/12 12:22:31;;;;;;;14.53;2.13;;;13.20;99.90;;;;;;5136243;27;20225;-70
2023/03/12 12:25:25;;;;;;;15.03;2.23;;;13.20;99.90;;;;;;5136138;27;20205;-69
2023/03/12 12:28:03;;;;;;;13.40;2.00;;;13.00;99.90;;;;;;5136425;27;20205;-70
2023/03/12 12:30:43;;;;;;;13.97;2.27;;;13.30;99.90;;;;;;5136460;27;20201;-69
2023/03/12 12:33:26;;;;;;;11.03;2.27;;;13.40;99.90;;;;;;5136365;27;20225;-69
2023/03/12 12:35:53;;;;;;;14.73;2.43;;;13.40;99.90;;;;;;5136139;27;20228;-69
2023/03/12 12:38:29;;;;;;;10.03;1.97;;;13.40;99.90;;;;;;5136624;27;20207;-69
2023/03/12 12:41:03;;;;;;;13.43;1.93;;;13.30;99.90;;;;;;5136260;27;20678;-69
2023/03/12 12:43:34;;;;;;;10.93;1.73;;;13.40;99.90;;;;;;5136418;27;20328;-70
2023/03/12 12:46:04;;;;;;;8.80;1.73;;;13.50;99.90;;;;;;5136304;27;20229;-69
2023/03/12 12:48:38;;;;;;;22.43;2.07;;;13.50;99.90;;;;;;5136207;27;20208;-70
2023/03/12 12:51:05;;;;;;;10.23;1.70;;;13.40;99.90;;;;;;5135564;27;20651;-69
2023/03/12 12:53:41;;;;;;;5.73;1.30;;;13.30;99.90;;;;;;5135870;27;20204;-70
2023/03/12 12:56:15;;;;;;;10.47;2.37;;;13.30;99.90;;;;;;5135782;27;20232;-69
2023/03/12 12:59:20;;;;;;;13.57;1.80;;;13.60;99.90;;;;;;5135779;27;20200;-70
2023/03/12 13:01:49;;;;;;;7.47;1.33;;;13.80;99.90;;;;;;5135939;27;20770;-69
2023/03/12 13:04:24;;;;;;;10.20;2.47;;;13.80;99.90;;;;;;5135420;27;20212;-69